Effective Sunday, March 17, 2024, the National Weather Service National Data Buoy Center will discontinue its Dial-A-Buoy Interactive Voice Response system. For more information, see Service Change Notice 24-06 (PDF).

Station AGXC1 - 9410647 - Angels Gate, CA Image indicating link to RSS feed of recent meteorological observations for station AGXC1


Conditions at AGXC1 as of
(7:54 am PST)
1554 GMT on 03/02/2024:
     

Click on the graph icon in the table below to see a time series plot of the last five days of that observation.

5-day plot - Wind Direction Wind Direction (WDIR): SW ( 230 deg true )
5-day plot - Wind Speed Wind Speed (WSPD): 14.0 kts
5-day plot - Wind Gust Wind Gust (GST): 17.1 kts
5-day plot - Air Temperature Air Temperature (ATMP): 59.4 °F
5-day plot - Wind Speed at 10 Meters Wind Speed at 10 meters (WSPD10M): 13.6 kts
5-day plot - Wind Speed at 20 Meters Wind Speed at 20 meters (WSPD20M): 13.6 kts
5-day plot -  Wind Speed, Wind Gust and Atmospheric Pressure Combined plot of Wind Speed, Gust, and Air Pressure
NOS Water Level Observation Network Water Level
Previous observations
TIME
(PST)
5-day plot - Wind Direction
WDIR
 
5-day plot - Wind Speed
WSPD
kts
5-day plot - Wind Gust
GST
kts
5-day plot - Wave Height
WVHT
ft
5-day plot - Dominant Wave Period
DPD
sec
5-day plot - Average Wave Period
APD
sec
5-day plot - Mean Wave Direction
MWD
 
5-day plot - Atmospheric Pressure
PRES
in
5-day plot - Pressure Tendency
PTDY
in
5-day plot - Air Temperature
ATMP
°F
5-day plot - Water Temperature
WTMP
°F
5-day plot - Dew Point
DEWP
°F
5-day plot - Salinity
SAL
psu
5-day plot - Visibility
VIS
nmi
5-day plot - Tide (above MLLW)
TIDE
ft
2024-03-02 07:42 am SW 8.9 11.1------ 59.2-----
2024-03-02 07:30 amSSW 9.9 12.0------ 58.8-----
2024-03-02 07:24 amSSW 11.1 13.0------------
2024-03-02 07:18 amSSW 9.9 12.0------------
2024-03-02 07:06 amSSW 9.9 12.0------ 58.5-----
2024-03-02 06:54 amSSW 9.9 12.0------ 58.3-----
2024-03-02 06:42 amSSW 9.9 12.0------ 58.1-----
2024-03-02 06:36 amSSW 8.9 12.0------ 57.9-----
2024-03-02 06:30 am SW 8.0 9.9------ 57.9-----
2024-03-02 06:24 am SW 6.0 8.0------ 57.6-----
2024-03-02 06:12 amWSW 5.1 8.0------ 57.4-----
2024-03-02 06:06 amWSW 6.0 8.0------ 57.0-----
2024-03-02 06:00 am W 7.0 8.9------ 57.0-----
2024-03-02 05:48 am W 8.9 12.0------ 56.7-----
2024-03-02 05:42 amWSW 11.1 14.0------ 56.8-----
2024-03-02 05:36 amWSW 8.9 13.0------ 56.7-----
2024-03-02 05:30 am W 9.9 12.0------ 56.1-----
2024-03-02 05:18 am W 12.0 15.0------ 56.7-----
2024-03-02 05:06 am W 9.9 14.0------ 57.0-----
2024-03-02 05:00 am W 12.0 19.0------ 57.6-----
2024-03-02 04:54 amWSW 12.0 19.0------ 59.4-----
2024-03-02 04:42 amWSW 9.9 13.0------ 59.4-----
2024-03-02 04:30 amWSW 8.0 12.0------------
2024-03-02 04:24 amWSW 8.0 11.1------ 59.4-----
2024-03-02 04:18 amWSW 7.0 9.9------ 59.4-----
2024-03-02 04:06 amWSW 6.0 8.9------ 59.4-----
2024-03-02 03:54 amWSW 8.0 9.9------ 59.4-----
2024-03-02 03:48 amWSW 7.0 9.9------ 59.4-----
2024-03-02 03:42 amWSW 8.0 9.9------ 59.4-----
2024-03-02 03:30 amWSW 8.9 12.0------ 58.8-----
2024-03-02 03:06 amSSW 11.1 14.0------ 58.6-----
2024-03-02 03:00 am SW 9.9 14.0------ 58.6-----
2024-03-02 02:54 am SW 13.0 15.9------------
2024-03-02 02:48 amSSW 12.0 13.0------------
2024-03-02 02:36 amSSW 12.0 14.0------------
2024-03-02 02:30 amSSW 12.0 15.9------------
2024-03-02 02:24 amSSW 11.1 13.0------ 58.6-----
2024-03-02 02:12 amSSW 8.9 11.1------ 58.6-----
2024-03-02 02:00 amSSW 9.9 12.0------------
2024-03-02 01:54 amSSW 11.1 13.0------ 58.5-----
2024-03-02 01:48 amSSW 9.9 12.0------ 58.5-----
2024-03-02 01:36 amSSW 11.1 13.0------ 57.9-----
2024-03-02 01:24 amSSW 12.0 15.0------ 57.7-----
2024-03-02 01:18 amSSW 14.0 17.1------ 57.6-----
2024-03-02 01:12 amSSW 15.9 20.0------ 57.7-----
2024-03-02 01:00 am SW 13.0 15.9------ 58.1-----
2024-03-02 12:48 am SW 15.0 19.0------ 58.3-----
2024-03-02 12:42 am SW 14.0 17.1------ 59.0-----
2024-03-02 12:36 amSSW 15.9 19.0------ 59.7-----
2024-03-02 12:24 amSSW 13.0 15.9------ 60.3-----
2024-03-02 12:12 am S 13.0 15.0------ 60.3-----
2024-03-02 12:06 amSSW 14.0 15.9------ 60.3-----
2024-03-02 12:00 amSSW 15.0 17.1------ 60.3-----
2024-03-01 11:48 pm S 12.0 15.9------ 60.4-----
2024-03-01 11:36 pm S 11.1 14.0------ 60.3-----
2024-03-01 11:30 pm S 12.0 13.0------ 60.3-----
2024-03-01 11:24 pm S 11.1 13.0------ 60.3-----
2024-03-01 11:12 pm S 12.0 15.0------ 60.1-----
2024-03-01 11:00 pm S 13.0 15.9------ 60.1-----
2024-03-01 10:54 pm S 14.0 15.9------ 60.1-----
2024-03-01 10:48 pm S 14.0 15.9------ 60.1-----
2024-03-01 10:36 pm S 12.0 14.0------ 59.9-----
2024-03-01 10:30 pm S 12.0 14.0------ 59.7-----
2024-03-01 10:18 pm S 12.0 13.0------ 59.5-----
2024-03-01 10:12 pm S 11.1 13.0------ 59.5-----
2024-03-01 10:06 pm S 12.0 14.0------ 59.5-----
2024-03-01 10:00 pm S 12.0 13.0------ 59.5-----
2024-03-01 09:48 pmSSW 12.0 14.0------ 59.5-----
2024-03-01 09:36 pmSSW 11.1 13.0------ 59.5-----
2024-03-01 09:30 pmSSW 12.0 13.0------ 59.5-----
2024-03-01 09:24 pmSSW 12.0 13.0------ 59.7-----
2024-03-01 09:18 pmSSW 12.0 13.0------ 59.7-----
2024-03-01 09:06 pmSSW 12.0 15.0------ 59.7-----
2024-03-01 08:54 pmSSW 12.0 13.0------ 59.7-----
2024-03-01 08:48 pmSSW 11.1 13.0------ 59.7-----
2024-03-01 08:42 pmSSW 11.1 13.0------ 59.7-----
2024-03-01 08:36 pmSSW 9.9 11.1------ 59.5-----
2024-03-01 08:24 pm S 9.9 12.0------ 59.5-----
2024-03-01 08:18 pm S 9.9 12.0------ 59.5-----
2024-03-01 08:12 pmSSW 12.0 14.0------ 59.5-----
2024-03-01 08:00 pmSSW 9.9 11.1------ 59.5-----
2024-03-01 07:48 pmSSW 9.9 12.0------ 59.4-----
2024-03-01 07:42 pmSSW 11.1 13.0------ 59.4-----
2024-03-01 07:36 pmSSW 11.1 12.0------ 59.4-----
2024-03-01 07:24 pm S 9.9 11.1------ 59.2-----
2024-03-01 07:12 pm S 8.0 8.9------ 59.0-----
2024-03-01 07:06 pm S 7.0 8.9------ 59.0-----
2024-03-01 07:00 pm S 8.0 8.9------ 59.0-----
2024-03-01 06:48 pm S 8.9 9.9------ 59.0-----
2024-03-01 06:36 pm S 8.0 8.9------ 59.0-----
2024-03-01 06:30 pm S 8.9 11.1------ 59.0-----
2024-03-01 06:24 pm S 9.9 12.0------ 59.2-----
2024-03-01 06:12 pmSSW 9.9 12.0------ 59.4-----
2024-03-01 06:00 pmSSW 11.1 12.0------ 59.5-----
2024-03-01 05:54 pmSSW 11.1 13.0------ 59.5-----
2024-03-01 05:48 pm SW 12.0 13.0------ 59.5-----
2024-03-01 05:36 pm SW 12.0 15.0------ 59.5-----
2024-03-01 05:24 pmWSW 8.9 12.0------ 59.4-----
2024-03-01 05:18 pm SW 9.9 14.0------ 59.4-----
2024-03-01 05:12 pm SW 8.0 12.0------ 59.5-----
2024-03-01 05:06 pmWSW 8.0 11.1------ 59.4-----
2024-03-01 05:00 pmWSW 8.9 13.0------ 59.4-----
2024-03-01 04:48 pmWSW 9.9 13.0------ 59.4-----
2024-03-01 04:42 pmWSW 9.9 14.0------ 59.9-----
2024-03-01 04:36 pmWSW 8.9 12.0------ 60.3-----
2024-03-01 04:24 pmWSW 8.9 12.0------ 60.3-----
2024-03-01 04:12 pmWSW 8.0 9.9------ 60.8-----
2024-03-01 04:06 pmWSW 7.0 9.9------ 60.8-----
2024-03-01 04:00 pmWSW 7.0 8.9------ 60.8-----
2024-03-01 03:48 pmWSW 7.0 8.9------ 60.8-----
2024-03-01 03:42 pmWSW 8.0 9.9------ 60.8-----
2024-03-01 03:36 pm SW 8.0 9.9------ 60.8-----
2024-03-01 03:30 pm SW 8.0 9.9------ 60.6-----
2024-03-01 03:18 pm SW 8.0 8.9------ 60.4-----
2024-03-01 03:06 pm SW 8.9 9.9------ 60.8-----
2024-03-01 03:00 pm SW 8.0 9.9------ 60.6-----
2024-03-01 02:54 pm SW 8.0 8.9------ 60.8-----
2024-03-01 02:42 pm SW 8.9 9.9------ 60.4-----
2024-03-01 02:30 pm SW 8.0 9.9------ 61.0-----
2024-03-01 02:24 pm SW 8.0 9.9------ 61.0-----
2024-03-01 02:18 pm SW 8.0 9.9------ 60.8-----
2024-03-01 02:06 pm SW 8.0 8.9------ 60.6-----
2024-03-01 01:54 pmSSW 8.0 9.9------ 61.7-----
2024-03-01 01:48 pmSSW 8.9 9.9------ 61.7-----
2024-03-01 01:42 pmSSW 8.0 9.9------ 63.5-----
2024-03-01 01:30 pmSSW 8.0 8.9------ 63.9-----
2024-03-01 01:18 pmSSW 8.0 8.9------ 64.2-----
2024-03-01 01:12 pmSSW 7.0 8.9------ 63.7-----
2024-03-01 01:06 pmSSW 7.0 8.0------ 63.5-----
2024-03-01 12:54 pmSSW 7.0 8.0------ 63.7-----
2024-03-01 12:48 pm S 6.0 8.0------ 63.7-----
2024-03-01 12:42 pm S 6.0 7.0------ 63.1-----
2024-03-01 12:36 pm S 6.0 8.0------ 63.3-----
2024-03-01 12:24 pm S 6.0 7.0------ 62.8-----
2024-03-01 12:12 pm S 6.0 8.0------ 63.1-----
2024-03-01 12:06 pm S 7.0 8.9------ 63.1-----
2024-03-01 12:00 pm S 6.0 7.0------ 63.1-----
2024-03-01 11:48 am S 6.0 7.0------ 62.4-----
2024-03-01 11:36 amSSE 5.1 6.0------ 62.1-----
2024-03-01 11:30 amSSE 5.1 6.0------ 62.1-----
2024-03-01 11:24 amSSE 4.1 6.0------ 61.3-----
2024-03-01 11:12 amESE 4.1 5.1------ 61.5-----
2024-03-01 11:00 amESE 5.1 6.0------ 61.3-----
2024-03-01 10:54 amESE 5.1 6.0------ 61.3-----
2024-03-01 10:48 amESE 4.1 5.1------ 61.5-----
2024-03-01 10:36 amESE 4.1 5.1------ 61.5-----
2024-03-01 10:24 amESE 4.1 4.1------ 61.7-----
2024-03-01 10:18 amESE 2.9 5.1------ 61.2-----
2024-03-01 10:12 amESE 4.1 5.1------ 61.3-----
2024-03-01 10:00 amESE 4.1 5.1------ 60.8-----
2024-03-01 09:48 amESE 4.1 4.1------ 60.3-----
2024-03-01 09:36 am SE 1.9 2.9------ 62.1-----
2024-03-01 09:30 am SE 1.9 1.9------ 63.1-----
2024-03-01 09:24 am S 1.0 1.9------ 63.1-----
2024-03-01 09:18 amSSE 1.0 2.9------ 62.6-----
2024-03-01 09:06 am- 0.0 1.0------ 62.8-----
2024-03-01 09:00 am- 0.0 1.0------ 62.1-----
2024-03-01 08:54 am- 0.0 1.9------ 60.8-----
2024-03-01 08:42 am- 0.0 1.0------ 60.3-----
2024-03-01 08:30 am SW 1.0 1.9------ 58.5-----
2024-03-01 08:24 am SW 1.9 2.9------ 58.8-----
2024-03-01 08:18 am S 1.0 1.9------ 58.8-----
2024-03-01 08:06 am SW 1.9 2.9------ 58.5-----
2024-03-01 08:00 amSSW 1.9 2.9------ 58.3-----
2024-03-01 07:54 amSSW 1.9 2.9------ 57.9-----